logo
Search for airport 
image banner adimage banner adimage banner ad
image banner ad

FANO - Nduno

Located in , South Africa

ICAO - , IATA -

Data provided by Airmate  

General information

Coordinates: S26°55'1" E32°17'50"
Elevation is 469 feet MSL.
 
View others Airports in Kwazulu-Natal

Operational data

Special qualification required
Current time UTC:
Current local time:
Weather at : - ( 0 km )
METAR: PAKP 140338Z AUTO 07010KT 3SM -SN FEW014 OVC024 M11/M14 A2975 RMK AO2 P0000 FZRANO
View NOTAMs / SUP AIP / TFR affecting this airport [VIEW]
Communications frequencies: [VIEW]

Runways:

RWY identifierQFULength (ft)Width (ft)SurfaceLDA (ft)
0420°164049GRASS
22200°164049GRASS

Airport contact information

Address: South Africa

Satellite view of FANO